Time;durP1;ratioP1;P1;durP2;ratioP2;P2;SDS_P1;SDS_P2;PMS_P1;PMS_P2;Temp;Humidity;BMP_temperature;BMP_pressure;BME280_temperature;BME280_humidity;BME280_pressure;Samples;Min_cycle;Max_cycle;Signal;HPM_P1;HPM_P2
2021/05/11 00:01:34;;;;;;;5.78;3.53;;;;;;;17.71;60.16;99594.06;4454810;32;20428;-90
2021/05/11 00:04:00;;;;;;;7.15;3.65;;;;;;;17.82;60.16;99594.25;4454863;32;20147;-90
2021/05/11 00:06:25;;;;;;;6.80;3.62;;;;;;;17.82;60.17;99588.97;4455028;32;20113;-90
2021/05/11 00:08:51;;;;;;;8.13;3.72;;;;;;;17.89;60.17;99585.00;4454847;32;20124;-90
2021/05/11 00:11:16;;;;;;;7.50;3.72;;;;;;;18.05;60.18;99580.44;4441881;32;20113;-90
2021/05/11 00:13:42;;;;;;;8.32;3.58;;;;;;;17.98;60.17;99580.91;4467941;32;20537;-91
2021/05/11 00:16:07;;;;;;;9.23;3.45;;;;;;;18.09;60.18;99586.34;4442059;32;20125;-90
2021/05/11 00:18:34;;;;;;;13.25;3.60;;;;;;;17.96;60.18;99585.44;4468028;32;20123;-89
2021/05/11 00:20:59;;;;;;;11.27;4.05;;;;;;;17.95;60.18;99579.31;4467614;32;20164;-90
2021/05/11 00:23:25;;;;;;;7.43;3.97;;;;;;;18.06;60.18;99581.28;4455110;32;20133;-90
2021/05/11 00:25:50;;;;;;;8.70;3.92;;;;;;;17.85;60.18;99572.97;4454350;32;21642;-90
2021/05/11 00:28:16;;;;;;;8.15;3.87;;;;;;;17.79;60.17;99584.75;4468119;32;20152;-92
2021/05/11 00:30:41;;;;;;;7.60;3.78;;;;;;;17.81;60.17;99586.44;4454489;32;20101;-91
2021/05/11 00:33:06;;;;;;;5.90;4.05;;;;;;;17.86;60.18;99577.28;4441113;32;20124;-90
2021/05/11 00:35:32;;;;;;;9.38;3.80;;;;;;;17.84;60.18;99576.56;4454511;32;20101;-90
2021/05/11 00:37:57;;;;;;;8.93;4.22;;;;;;;17.70;60.17;99581.84;4467435;32;20139;-90
2021/05/11 00:40:22;;;;;;;6.60;3.87;;;;;;;17.58;60.15;99587.88;4467330;32;20375;-89
2021/05/11 00:42:48;;;;;;;7.55;3.67;;;;;;;17.69;60.15;99582.78;4441424;32;27675;-90
2021/05/11 00:45:13;;;;;;;7.15;3.95;;;;;;;17.66;60.16;99582.97;4468659;32;21536;-89
2021/05/11 00:47:40;;;;;;;8.32;3.70;;;;;;;17.59;60.15;99579.88;4454384;32;20152;-89
2021/05/11 00:50:06;;;;;;;12.55;3.85;;;;;;;17.67;60.16;99585.53;4454820;32;20164;-89
2021/05/11 00:52:31;;;;;;;5.90;3.50;;;;;;;17.62;60.16;99584.09;4454555;32;20783;-90
2021/05/11 00:54:57;;;;;;;10.60;4.10;;;;;;;17.57;60.15;99581.78;4454352;32;20124;-89
2021/05/11 00:57:22;;;;;;;6.65;3.85;;;;;;;17.56;60.15;99580.09;4467782;32;20101;-90
2021/05/11 00:59:49;;;;;;;10.90;3.80;;;;;;;17.56;60.16;99585.34;4454715;32;20136;-90
2021/05/11 01:02:14;;;;;;;10.57;3.95;;;;;;;17.51;60.15;99579.53;4454929;32;20513;-90
2021/05/11 01:04:40;;;;;;;7.97;4.35;;;;;;;17.43;60.15;99580.00;4454438;32;20176;-90
2021/05/11 01:07:05;;;;;;;11.27;4.10;;;;;;;17.38;60.15;99582.06;4454282;32;20109;-90
2021/05/11 01:09:31;;;;;;;9.48;3.72;;;;;;;17.47;60.16;99573.59;4454530;32;20472;-89
2021/05/11 01:11:56;;;;;;;8.90;4.00;;;;;;;17.43;60.15;99576.50;4441739;32;20085;-90
2021/05/11 01:14:23;;;;;;;8.25;4.43;;;;;;;17.37;60.14;99579.53;4441560;32;20634;-89
2021/05/11 01:16:54;;;;;;;7.90;3.60;;;;;;;17.40;60.15;99585.44;4454874;32;20127;-89
2021/05/11 01:24:51;;;;;;;6.80;4.12;;;;;;;17.16;60.14;99585.19;4442224;32;20169;-89
2021/05/11 01:33:07;;;;;;;17.23;4.37;;;;;;;17.04;60.13;99583.31;4468285;32;20141;-89
2021/05/11 02:23:29;;;;;;;6.40;3.85;;;;;;;16.64;60.10;99566.44;4457806;32;20154;-92
2021/05/11 02:25:57;;;;;;;7.95;4.10;;;;;;;16.50;60.09;99563.78;4442799;32;20101;-92
2021/05/11 02:28:23;;;;;;;11.52;4.40;;;;;;;16.62;60.11;99563.06;4455530;32;20491;-92
2021/05/11 02:30:49;;;;;;;13.35;4.32;;;;;;;16.59;60.10;99568.50;4455575;32;20101;-90
2021/05/11 02:33:15;;;;;;;8.65;4.60;;;;;;;16.60;60.10;99566.72;4454415;32;20115;-89
2021/05/11 02:35:40;;;;;;;6.43;4.05;;;;;;;16.63;60.10;99561.28;4454374;32;20531;-89
2021/05/11 02:38:05;;;;;;;10.10;4.07;;;;;;;16.64;60.11;99555.94;4466499;32;27189;-89
2021/05/11 02:40:31;;;;;;;11.30;4.30;;;;;;;16.62;60.11;99560.44;4467178;32;20449;-89
2021/05/11 02:43:06;;;;;;;9.73;3.80;;;;;;;16.65;60.10;99552.37;4467000;32;20101;-89
2021/05/11 02:45:32;;;;;;;8.93;3.75;;;;;;;16.68;60.10;99549.59;4443514;32;20093;-89
2021/05/11 02:47:58;;;;;;;8.57;4.07;;;;;;;16.69;60.10;99542.53;4454611;32;20117;-89
2021/05/11 02:50:25;;;;;;;5.82;3.67;;;;;;;16.66;60.10;99545.34;4467868;32;31883;-89
2021/05/11 02:52:50;;;;;;;5.12;4.00;;;;;;;16.62;60.11;99536.78;4441515;32;20179;-88
2021/05/11 02:55:16;;;;;;;8.35;3.67;;;;;;;16.61;60.10;99539.50;4466372;32;20122;-89
2021/05/11 02:57:42;;;;;;;9.40;4.00;;;;;;;16.59;60.10;99542.22;4454168;32;20113;-89
2021/05/11 03:00:08;;;;;;;7.30;4.72;;;;;;;16.53;60.09;99550.47;4466941;32;20122;-89
2021/05/11 03:02:33;;;;;;;5.50;3.55;;;;;;;16.56;60.10;99542.38;4454028;32;20099;-90
2021/05/11 03:04:59;;;;;;;7.10;3.72;;;;;;;16.53;60.09;99547.84;4453357;32;29997;-89
2021/05/11 03:07:24;;;;;;;8.70;4.78;;;;;;;16.56;60.10;99545.03;4439978;32;21619;-89
2021/05/11 03:09:49;;;;;;;8.98;3.65;;;;;;;16.53;60.09;99551.31;4466607;32;20175;-89
2021/05/11 03:12:15;;;;;;;8.32;4.32;;;;;;;16.68;60.10;99549.59;4464776;32;20144;-89
2021/05/11 03:14:40;;;;;;;8.52;4.45;;;;;;;16.55;60.10;99556.47;4465419;32;20107;-88
2021/05/11 03:17:06;;;;;;;5.72;4.32;;;;;;;16.45;60.09;99553.56;4451428;32;20112;-90
2021/05/11 03:19:31;;;;;;;9.20;4.40;;;;;;;16.63;60.10;99561.28;4465448;32;20201;-90
2021/05/11 03:21:57;;;;;;;5.93;3.90;;;;;;;16.59;60.10;99555.38;4465852;32;20124;-91
2021/05/11 03:24:22;;;;;;;9.38;4.75;;;;;;;16.59;60.10;99555.38;4451217;32;20096;-90
2021/05/11 03:26:49;;;;;;;7.25;4.70;;;;;;;16.55;60.10;99551.22;4451549;32;20470;-91
2021/05/11 03:29:15;;;;;;;10.23;4.53;;;;;;;16.56;60.10;99556.41;4451662;32;20124;-90
2021/05/11 03:31:40;;;;;;;11.63;4.93;;;;;;;16.52;60.10;99552.25;4438639;32;22777;-91
2021/05/11 03:34:05;;;;;;;8.05;4.32;;;;;;;16.70;60.10;99555.59;4440398;32;20093;-90
2021/05/11 03:36:31;;;;;;;8.43;5.15;;;;;;;16.67;60.10;99566.28;4453047;32;20449;-89
2021/05/11 03:38:59;;;;;;;7.87;4.43;;;;;;;16.65;60.10;99557.63;4466067;32;20089;-89
2021/05/11 03:41:28;;;;;;;10.80;4.78;;;;;;;16.70;60.11;99560.00;4441006;32;20115;-89
2021/05/11 03:44:08;;;;;;;10.50;4.70;;;;;;;16.70;60.09;99560.00;4467650;32;20115;-90
2021/05/11 03:46:35;;;;;;;7.22;4.55;;;;;;;16.78;60.11;99566.47;4466153;32;21075;-90
2021/05/11 03:49:01;;;;;;;7.80;4.18;;;;;;;16.76;60.10;99567.50;4440700;32;20499;-89
2021/05/11 03:51:26;;;;;;;9.18;4.90;;;;;;;16.81;60.11;99553.19;4466773;32;20092;-93
2021/05/11 03:53:52;;;;;;;7.05;4.40;;;;;;;16.91;60.11;99560.50;4467229;32;20124;-90
2021/05/11 03:56:17;;;;;;;9.63;4.40;;;;;;;16.96;60.12;99566.31;4467318;32;21286;-88
2021/05/11 03:58:43;;;;;;;17.90;6.22;;;;;;;17.05;60.12;99560.50;4465280;32;26975;-89
2021/05/11 04:01:08;;;;;;;8.05;4.45;;;;;;;17.10;60.13;99561.91;4465949;32;20251;-90
2021/05/11 04:03:33;;;;;;;11.73;5.32;;;;;;;17.07;60.12;99562.09;4465697;32;20120;-90
2021/05/11 04:06:00;;;;;;;8.10;4.53;;;;;;;17.21;60.13;99553.34;4466213;32;20131;-89
2021/05/11 04:13:53;;;;;;;7.37;4.78;;;;;;;17.40;60.14;99559.13;4468186;32;20112;-88
2021/05/11 04:18:44;;;;;;;8.23;5.03;;;;;;;17.52;60.14;99554.06;4468151;32;20109;-89
2021/05/11 04:21:10;;;;;;;10.57;4.80;;;;;;;17.68;60.15;99549.50;4455248;32;20108;-89
2021/05/11 04:23:35;;;;;;;11.38;5.12;;;;;;;17.70;60.16;99553.72;4441810;32;20795;-89
2021/05/11 04:26:01;;;;;;;9.77;4.35;;;;;;;17.85;60.17;99551.06;4455011;32;20097;-90
2021/05/11 04:28:27;;;;;;;10.10;5.20;;;;;;;17.98;60.17;99550.19;4469367;32;20162;-89
2021/05/11 04:30:52;;;;;;;10.00;5.12;;;;;;;18.06;60.17;99544.41;4467864;32;20153;-90
2021/05/11 04:33:18;;;;;;;12.18;4.68;;;;;;;18.22;60.18;99545.09;4454752;32;20141;-89
2021/05/11 04:35:43;;;;;;;9.48;5.28;;;;;;;18.48;60.20;99545.97;4467861;32;20856;-89
2021/05/11 04:38:08;;;;;;;9.40;5.03;;;;;;;18.64;60.21;99540.50;4454649;32;20175;-90
2021/05/11 04:40:34;;;;;;;10.90;4.87;;;;;;;18.76;60.21;99542.31;4467287;32;20136;-88
2021/05/11 04:42:59;;;;;;;10.70;4.90;;;;;;;18.88;60.22;99544.09;4469112;32;20468;-90
2021/05/11 04:45:26;;;;;;;10.77;4.68;;;;;;;19.00;60.22;99537.13;4454906;32;20452;-90
2021/05/11 04:47:53;;;;;;;14.63;4.62;;;;;;;19.19;60.23;99544.59;4442152;32;20852;-90
2021/05/11 04:50:20;;;;;;;9.73;4.25;;;;;;;19.29;60.23;99541.19;4441699;32;20861;-90
2021/05/11 04:52:45;;;;;;;7.43;4.50;;;;;;;19.31;60.25;99547.19;4467458;32;20073;-90
2021/05/11 04:55:11;;;;;;;10.05;4.68;;;;;;;19.42;60.24;99548.25;4441548;32;20147;-89
2021/05/11 04:57:37;;;;;;;8.90;4.00;;;;;;;19.52;60.25;99546.63;4467986;32;20128;-89
2021/05/11 05:00:04;;;;;;;8.52;4.28;;;;;;;19.81;60.27;99539.25;4454533;32;20417;-90
2021/05/11 05:02:30;;;;;;;8.55;4.35;;;;;;;19.86;60.28;99542.38;4455064;32;20085;-90
2021/05/11 05:04:56;;;;;;;6.87;4.25;;;;;;;19.93;60.28;99548.91;4469279;32;20076;-90
2021/05/11 05:07:21;;;;;;;9.60;4.37;;;;;;;19.87;60.27;99539.66;4468030;32;20135;-90
2021/05/11 05:09:46;;;;;;;6.15;3.67;;;;;;;19.94;60.27;99529.47;4468960;32;20171;-90
2021/05/11 05:12:12;;;;;;;9.20;3.80;;;;;;;19.92;60.27;99539.31;4469459;32;20105;-91
2021/05/11 05:14:37;;;;;;;6.82;4.30;;;;;;;19.97;60.27;99531.88;4467077;32;33529;-91
2021/05/11 05:17:03;;;;;;;8.57;4.32;;;;;;;20.21;60.29;99529.22;4441923;32;20139;-91
2021/05/11 05:19:28;;;;;;;9.85;4.55;;;;;;;20.26;60.29;99534.97;4454408;32;20088;-90
2021/05/11 05:21:54;;;;;;;11.45;4.70;;;;;;;20.29;60.29;99540.03;4454470;32;22531;-91
2021/05/11 05:24:25;;;;;;;12.02;3.75;;;;;;;20.30;60.29;99538.22;4441865;32;20640;-90
2021/05/11 05:26:52;;;;;;;14.02;3.65;;;;;;;20.37;60.29;99537.66;4455462;32;20104;-90
2021/05/11 05:29:17;;;;;;;8.02;3.28;;;;;;;20.67;60.31;99549.53;4467731;32;20106;-90
2021/05/11 05:31:43;;;;;;;9.63;3.65;;;;;;;20.74;60.32;99537.53;4467996;32;20096;-90
2021/05/11 05:34:09;;;;;;;6.32;3.22;;;;;;;20.78;60.31;99541.59;4438508;32;111640;-90
2021/05/11 05:36:34;;;;;;;11.40;4.07;;;;;;;20.82;60.32;99543.91;4441380;32;23340;-90
2021/05/11 05:38:59;;;;;;;6.93;3.15;;;;;;;20.93;60.32;99539.59;4467420;32;20171;-91
2021/05/11 05:41:25;;;;;;;5.18;3.00;;;;;;;20.96;60.33;99540.19;4442003;32;20524;-89
2021/05/11 05:43:51;;;;;;;8.25;3.50;;;;;;;21.01;60.33;99538.00;4454885;32;20506;-90
2021/05/11 05:46:17;;;;;;;11.30;3.90;;;;;;;21.21;60.34;99533.78;4455118;32;20571;-90
2021/05/11 05:48:43;;;;;;;8.55;2.95;;;;;;;21.27;60.35;99530.69;4441677;32;20105;-90
2021/05/11 05:51:09;;;;;;;6.37;3.47;;;;;;;21.34;60.35;99528.41;4454939;32;20093;-90
2021/05/11 05:53:40;;;;;;;7.87;2.42;;;;;;;21.40;60.35;99523.47;4454604;32;20152;-90
2021/05/11 05:56:06;;;;;;;3.85;2.33;;;;;;;21.63;60.37;99520.75;4454833;32;20144;-90
2021/05/11 05:58:32;;;;;;;4.78;2.65;;;;;;;21.68;60.36;99521.22;4454462;32;20080;-90
2021/05/11 06:01:01;;;;;;;7.30;3.25;;;;;;;21.78;60.37;99516.03;4454745;32;20157;-90
2021/05/11 06:03:34;;;;;;;9.15;2.75;;;;;;;21.88;60.38;99517.78;4442611;32;20401;-90
2021/05/11 06:05:59;;;;;;;9.88;2.40;;;;;;;21.94;60.38;99527.03;4455168;32;20109;-90
2021/05/11 06:08:28;;;;;;;7.72;2.80;;;;;;;22.07;60.39;99525.09;4454449;32;20104;-90
2021/05/11 06:10:59;;;;;;;8.43;2.60;;;;;;;22.28;60.40;99525.12;4454511;32;20116;-91
2021/05/11 06:13:30;;;;;;;5.53;2.78;;;;;;;22.34;60.41;99524.59;4442632;32;20136;-90
2021/05/11 06:18:39;;;;;;;9.43;2.08;;;;;;;22.44;60.40;99527.28;4456435;32;20148;-90
2021/05/11 06:21:05;;;;;;;6.30;2.67;;;;;;;22.62;60.41;99517.78;4453997;32;21510;-91
2021/05/11 06:23:30;;;;;;;5.72;2.50;;;;;;;22.65;60.42;99517.50;4454512;32;20469;-91
2021/05/11 06:25:56;;;;;;;11.00;2.90;;;;;;;22.77;60.42;99519.13;4441542;32;20361;-91
2021/05/11 06:28:23;;;;;;;7.20;2.60;;;;;;;22.81;60.43;99522.34;4453760;32;23180;-90
2021/05/11 06:30:48;;;;;;;7.95;2.65;;;;;;;22.98;60.44;99521.78;4453477;32;20123;-92
2021/05/11 06:33:14;;;;;;;7.87;2.40;;;;;;;23.08;60.44;99516.50;4454259;32;20120;-90
2021/05/11 06:35:39;;;;;;;9.15;2.33;;;;;;;22.92;60.43;99523.13;4454486;32;20104;-91
2021/05/11 06:38:04;;;;;;;11.05;2.25;;;;;;;22.95;60.43;99522.03;4467124;32;20119;-90
2021/05/11 06:40:31;;;;;;;10.45;2.92;;;;;;;22.99;60.44;99510.19;4454283;32;20093;-91
2021/05/11 06:42:58;;;;;;;7.90;3.53;;;;;;;23.07;60.44;99512.16;4454304;32;20604;-91
2021/05/11 06:55:29;;;;;;;8.60;2.45;;;;;;;23.94;60.48;99502.56;4454765;32;20393;-91
2021/05/11 06:57:55;;;;;;;6.40;2.22;;;;;;;24.26;60.50;99501.41;4466993;32;20124;-91
2021/05/11 07:00:21;;;;;;;8.82;2.42;;;;;;;24.44;60.52;99505.91;4440999;32;20112;-90
2021/05/11 07:02:47;;;;;;;7.82;2.95;;;;;;;24.56;60.52;99503.06;4468097;32;20097;-91
2021/05/11 07:05:13;;;;;;;8.77;2.65;;;;;;;24.61;60.52;99499.00;4454001;32;20077;-91
2021/05/11 07:07:39;;;;;;;9.13;3.00;;;;;;;24.53;60.52;99493.56;4453585;32;20150;-91
2021/05/11 07:10:22;;;;;;;5.90;2.17;;;;;;;24.55;60.52;99496.06;4453832;32;20145;-90
2021/05/11 07:15:51;;;;;;;9.15;2.40;;;;;;;24.44;60.50;99486.44;4434582;32;20106;-91
2021/05/11 07:18:17;;;;;;;5.28;2.40;;;;;;;24.44;60.52;99481.13;4421023;32;28919;-90
2021/05/11 07:20:44;;;;;;;5.60;2.37;;;;;;;24.55;60.52;99480.94;4441226;32;20146;-91
2021/05/11 07:23:10;;;;;;;10.38;2.70;;;;;;;24.89;60.53;99477.75;4440976;32;20164;-91
2021/05/11 07:25:50;;;;;;;4.35;2.20;;;;;;;24.87;60.53;99487.72;4440858;32;20197;-91
2021/05/11 07:28:46;;;;;;;6.70;2.45;;;;;;;24.94;60.54;99484.31;4455568;32;20101;-91
2021/05/11 07:31:07;;;;;;;8.27;2.20;;;;;;;24.99;60.54;99487.38;4455915;32;20115;-91
2021/05/11 07:33:36;;;;;;;4.35;2.10;;;;;;;25.24;60.56;99482.34;4440831;32;20132;-91
2021/05/11 07:36:02;;;;;;;3.10;1.90;;;;;;;25.37;60.57;99486.34;4453944;32;20132;-91
2021/05/11 07:38:28;;;;;;;6.15;1.92;;;;;;;25.53;60.58;99479.50;4466082;32;20096;-90
2021/05/11 07:40:53;;;;;;;8.32;2.60;;;;;;;25.68;60.57;99488.69;4440969;32;20093;-91
2021/05/11 07:43:20;;;;;;;5.80;2.35;;;;;;;25.76;60.57;99496.75;4455541;32;20440;-90
2021/05/11 07:51:37;;;;;;;8.00;2.83;;;;;;;26.23;60.60;99477.81;4468591;32;20150;-92
2021/05/11 08:01:57;;;;;;;5.45;2.22;;;;;;;26.41;60.62;99484.00;4468837;32;20153;-88
2021/05/11 08:04:59;;;;;;;4.68;2.28;;;;;;;26.38;60.62;99488.81;4456232;32;20089;-90
2021/05/11 08:15:29;;;;;;;7.05;2.30;;;;;;;26.86;60.63;99494.44;4457565;32;20514;-89
2021/05/11 08:28:30;;;;;;;7.28;2.03;;;;;;;28.32;60.71;99487.81;4457432;32;20119;-89
2021/05/11 08:30:56;;;;;;;4.60;2.22;;;;;;;28.45;60.72;99472.06;4441955;32;20156;-89
2021/05/11 08:33:21;;;;;;;6.15;2.15;;;;;;;28.61;60.72;99488.06;4454935;32;20145;-89
2021/05/11 08:35:49;;;;;;;8.57;3.40;;;;;;;28.79;60.74;99479.84;4441816;32;21318;-89
2021/05/11 08:38:14;;;;;;;9.35;2.15;;;;;;;29.07;60.75;99480.25;4455062;32;20127;-89
2021/05/11 08:40:40;;;;;;;9.73;3.10;;;;;;;29.32;60.77;99472.94;4467619;32;20536;-89
2021/05/11 08:43:36;;;;;;;10.05;2.22;;;;;;;29.40;60.77;99483.63;4468602;32;33345;-89
2021/05/11 08:46:05;;;;;;;9.57;2.00;;;;;;;29.62;60.78;99471.28;4443547;32;20105;-88
2021/05/11 08:48:31;;;;;;;6.20;2.17;;;;;;;29.57;60.78;99477.16;4455200;32;20096;-87
2021/05/11 08:51:04;;;;;;;7.53;2.08;;;;;;;29.46;60.77;99476.75;4467883;32;20380;-88
2021/05/11 09:32:14;;;;;;;8.07;2.60;;;;;;;30.48;60.83;99437.84;4454827;32;20109;-87
2021/05/11 09:56:50;;;;;;;5.65;2.08;;;;;;;31.26;60.87;99428.38;4468742;32;20504;-85
2021/05/11 10:46:57;;;;;;;3.17;2.10;;;;;;;32.36;60.93;99381.13;4467160;32;20120;-85
2021/05/11 10:49:32;;;;;;;2.70;1.95;;;;;;;32.15;60.91;99381.16;4468306;32;20389;-85
2021/05/11 10:52:14;;;;;;;3.75;2.15;;;;;;;32.29;60.92;99382.13;4468259;32;20172;-85
2021/05/11 10:55:11;;;;;;;5.70;2.20;;;;;;;32.27;60.92;99379.62;4466936;32;20089;-84
2021/05/11 11:00:24;;;;;;;4.12;2.05;;;;;;;32.35;60.92;99370.53;4455623;32;20151;-84
2021/05/11 11:03:12;;;;;;;8.13;2.12;;;;;;;32.52;60.93;99358.41;4468091;32;20056;-85
2021/05/11 11:05:44;;;;;;;3.72;1.85;;;;;;;32.57;60.93;99355.13;4468136;32;20081;-85
2021/05/11 11:08:29;;;;;;;3.40;2.17;;;;;;;32.63;60.93;99347.06;4467999;32;20161;-84
2021/05/11 11:11:21;;;;;;;7.57;2.20;;;;;;;32.73;60.94;99344.00;4467028;32;20173;-85
2021/05/11 11:13:46;;;;;;;3.28;2.03;;;;;;;32.83;60.95;99332.84;4466558;32;20084;-85
2021/05/11 11:16:12;;;;;;;6.05;2.17;;;;;;;32.83;60.95;99331.00;4454144;32;20441;-84
2021/05/11 11:18:38;;;;;;;5.47;1.98;;;;;;;32.76;60.95;99334.69;4468276;32;20449;-85
2021/05/11 11:21:34;;;;;;;3.53;1.87;;;;;;;32.75;60.95;99325.75;4455572;32;20112;-85
2021/05/11 11:23:53;;;;;;;;;;;;;;;32.70;60.94;99324.72;4458561;32;20112;-84
2021/05/11 11:26:29;;;;;;;5.87;2.30;;;;;;;32.56;60.93;99326.50;4470053;32;19972;-85
2021/05/11 11:29:08;;;;;;;6.60;2.03;;;;;;;32.46;60.93;99328.75;4455518;32;20096;-85
2021/05/11 11:31:36;;;;;;;3.40;2.07;;;;;;;32.47;60.93;99325.03;4468435;32;20266;-84
2021/05/11 11:34:15;;;;;;;3.47;1.98;;;;;;;32.58;60.93;99309.09;4468253;32;20093;-84
2021/05/11 11:36:40;;;;;;;3.30;2.20;;;;;;;32.51;60.94;99307.44;4469757;32;20085;-84
2021/05/11 11:39:15;;;;;;;6.40;2.20;;;;;;;32.54;60.93;99307.84;4469524;32;20127;-84
2021/05/11 11:41:40;;;;;;;7.00;2.67;;;;;;;32.51;60.94;99310.13;4468495;32;20168;-84
2021/05/11 11:44:06;;;;;;;2.70;2.00;;;;;;;32.64;60.94;99305.59;4467798;32;24192;-85
2021/05/11 11:46:32;;;;;;;5.57;2.10;;;;;;;32.70;60.94;99305.84;4468375;32;20145;-86
2021/05/11 11:49:01;;;;;;;5.15;1.90;;;;;;;32.73;60.94;99291.97;4442748;32;20188;-84
2021/05/11 11:51:31;;;;;;;4.62;2.42;;;;;;;32.72;60.95;99283.03;4468411;32;20121;-85
2021/05/11 11:59:32;;;;;;;5.12;2.42;;;;;;;33.09;60.96;99270.06;4468146;32;20153;-84
2021/05/11 12:02:02;;;;;;;3.25;2.17;;;;;;;33.09;60.96;99259.28;4468310;32;20120;-85
2021/05/11 12:04:28;;;;;;;4.82;2.25;;;;;;;33.19;60.97;99257.84;4468158;32;20084;-84
2021/05/11 12:06:54;;;;;;;5.47;2.08;;;;;;;33.28;60.97;99248.50;4468098;32;20076;-84
2021/05/11 12:09:22;;;;;;;3.60;3.10;;;;;;;33.33;60.97;99244.38;4469321;32;20518;-84
2021/05/11 12:11:47;;;;;;;4.37;2.10;;;;;;;33.26;60.97;99245.19;4468081;32;20176;-84
2021/05/11 12:14:16;;;;;;;7.95;2.15;;;;;;;33.33;60.98;99245.22;4467956;32;20144;-84
2021/05/11 12:16:43;;;;;;;5.80;2.10;;;;;;;33.33;60.98;99241.69;4468011;32;20106;-85
2021/05/11 12:19:11;;;;;;;4.03;2.30;;;;;;;33.46;60.98;99239.00;4469383;32;20369;-84
2021/05/11 12:22:04;;;;;;;6.55;2.58;;;;;;;33.40;60.98;99229.03;4468098;32;20127;-84
2021/05/11 12:24:34;;;;;;;6.22;2.45;;;;;;;33.47;60.99;99213.66;4469364;32;20137;-85
2021/05/11 12:27:15;;;;;;;;;;;;;;;33.48;60.98;99223.41;4468471;32;20140;-85
2021/05/11 12:30:03;;;;;;;4.12;2.70;;;;;;;33.43;60.98;99212.44;4469418;32;20360;-84
2021/05/11 12:32:29;;;;;;;7.22;2.25;;;;;;;33.22;60.97;99221.53;4467948;32;20156;-84
2021/05/11 12:35:13;;;;;;;3.83;2.00;;;;;;;33.29;60.97;99211.56;4469226;32;20157;-84
2021/05/11 12:37:54;;;;;;;4.53;2.25;;;;;;;33.43;60.97;99202.47;4467925;32;20441;-84
2021/05/11 12:40:28;;;;;;;9.93;2.30;;;;;;;33.54;60.98;99195.59;4469232;32;20097;-84
2021/05/11 12:42:56;;;;;;;4.65;2.20;;;;;;;33.56;60.99;99201.59;4456001;32;20105;-84
2021/05/11 12:45:21;;;;;;;2.97;1.98;;;;;;;33.42;60.98;99198.09;4467916;32;20085;-85
2021/05/11 12:47:50;;;;;;;4.15;2.00;;;;;;;33.28;60.98;99202.66;4467120;32;36394;-84
2021/05/11 12:50:22;;;;;;;4.28;2.45;;;;;;;33.42;60.98;99197.28;4455158;32;20119;-84
2021/05/11 12:52:49;;;;;;;5.82;2.62;;;;;;;33.22;60.96;99195.41;4467955;32;20127;-85
2021/05/11 12:55:34;;;;;;;4.18;2.35;;;;;;;33.18;60.97;99188.75;4455036;32;20157;-84
2021/05/11 12:58:20;;;;;;;2.60;2.30;;;;;;;33.18;60.97;99193.34;4469238;32;20092;-85
2021/05/11 13:00:47;;;;;;;4.28;2.10;;;;;;;33.17;60.97;99184.41;4468909;32;20480;-84
2021/05/11 13:03:36;;;;;;;4.25;2.30;;;;;;;33.15;60.97;99181.09;4454973;32;20166;-84
2021/05/11 13:17:07;;;;;;;4.68;1.90;;;;;;;32.93;60.96;99163.47;4467948;32;20198;-85
2021/05/11 13:30:38;;;;;;;3.25;1.73;;;;;;;33.21;60.97;99155.97;4469040;32;20107;-84
2021/05/11 13:35:32;;;;;;;5.72;1.90;;;;;;;32.94;60.95;99139.00;4468930;32;20096;-84
2021/05/11 13:37:57;;;;;;;8.60;2.95;;;;;;;33.17;60.97;99132.34;4454490;32;20536;-84
2021/05/11 13:40:23;;;;;;;2.22;1.77;;;;;;;33.13;60.96;99128.41;4467734;32;20116;-84
2021/05/11 13:42:48;;;;;;;5.60;2.17;;;;;;;33.18;60.96;99126.72;4467419;32;20163;-84
2021/05/11 13:45:14;;;;;;;5.37;1.98;;;;;;;33.09;60.97;99127.97;4468181;32;26073;-84
2021/05/11 13:47:41;;;;;;;6.12;2.15;;;;;;;32.97;60.96;99121.56;4468774;32;20100;-85
2021/05/11 13:50:12;;;;;;;4.93;2.10;;;;;;;32.91;60.97;99117.00;4467588;32;20109;-84
2021/05/11 13:52:37;;;;;;;4.72;2.08;;;;;;;32.97;60.96;99108.91;4467611;32;20722;-84
2021/05/11 13:55:09;;;;;;;3.97;2.33;;;;;;;32.77;60.95;99105.38;4467625;32;20157;-84
2021/05/11 14:03:03;;;;;;;5.28;1.73;;;;;;;32.81;60.95;99106.63;4468822;32;20160;-84
2021/05/11 14:05:28;;;;;;;4.68;2.03;;;;;;;32.63;60.94;99104.53;4468834;32;20465;-84
2021/05/11 14:07:54;;;;;;;14.45;2.37;;;;;;;32.64;60.94;99095.41;4468439;32;20190;-84
2021/05/11 14:10:19;;;;;;;7.35;2.33;;;;;;;32.77;60.95;99091.88;4441320;32;20145;-84
2021/05/11 14:12:45;;;;;;;4.70;2.20;;;;;;;32.83;60.96;99090.25;4454369;32;20097;-84
2021/05/11 14:15:11;;;;;;;6.70;2.35;;;;;;;32.87;60.95;99086.09;4454456;32;20123;-84
2021/05/11 14:17:37;;;;;;;8.55;2.80;;;;;;;32.91;60.96;99079.28;4468605;32;20101;-84
2021/05/11 14:20:03;;;;;;;5.97;2.17;;;;;;;32.73;60.94;99077.16;4466911;32;20085;-84
2021/05/11 14:22:28;;;;;;;5.85;2.10;;;;;;;32.67;60.94;99078.84;4467342;32;20126;-84
2021/05/11 14:24:54;;;;;;;4.90;2.03;;;;;;;32.63;60.94;99076.75;4468546;32;20108;-84
2021/05/11 14:27:19;;;;;;;4.68;1.70;;;;;;;32.70;60.95;99074.06;4453543;32;25721;-84
2021/05/11 14:29:45;;;;;;;3.97;1.70;;;;;;;32.73;60.95;99070.94;4453979;32;20085;-84
2021/05/11 14:32:11;;;;;;;5.07;2.10;;;;;;;32.70;60.95;99069.50;4468454;32;20480;-84
2021/05/11 14:34:36;;;;;;;8.05;2.25;;;;;;;32.58;60.95;99063.91;4441185;32;20108;-84
2021/05/11 14:37:02;;;;;;;3.15;1.80;;;;;;;32.30;60.93;99068.66;4467091;32;20113;-84
2021/05/11 14:39:27;;;;;;;5.65;1.85;;;;;;;32.11;60.92;99062.16;4466847;32;20131;-84
2021/05/11 14:41:54;;;;;;;9.75;1.95;;;;;;;32.05;60.91;99063.00;4454074;32;20116;-84
2021/05/11 14:44:20;;;;;;;3.10;1.83;;;;;;;31.99;60.91;99061.94;4464034;32;20207;-84
2021/05/11 14:46:46;;;;;;;3.92;1.77;;;;;;;31.99;60.91;99061.94;4466533;32;20110;-84
2021/05/11 14:49:11;;;;;;;7.05;2.20;;;;;;;32.08;60.91;99065.25;4466841;32;20200;-84
2021/05/11 14:51:37;;;;;;;4.35;1.67;;;;;;;31.94;60.91;99064.44;4466686;32;20417;-84
2021/05/11 14:54:03;;;;;;;4.18;1.80;;;;;;;31.98;60.91;99067.53;4468170;32;20144;-84
2021/05/11 14:56:28;;;;;;;5.25;1.70;;;;;;;31.95;60.92;99062.56;4466688;32;20188;-85
2021/05/11 14:58:54;;;;;;;5.37;2.00;;;;;;;32.06;60.92;99062.78;4467697;32;20132;-84
2021/05/11 15:01:19;;;;;;;4.70;1.62;;;;;;;32.05;60.91;99071.06;4466776;32;20135;-85
2021/05/11 15:03:45;;;;;;;3.30;1.75;;;;;;;31.82;60.90;99059.81;4453699;32;20123;-84
2021/05/11 15:06:10;;;;;;;6.37;2.25;;;;;;;31.89;60.91;99053.41;4453051;32;22027;-84
2021/05/11 15:08:36;;;;;;;3.47;2.20;;;;;;;31.86;60.91;99045.75;4453045;32;20144;-85
2021/05/11 15:11:01;;;;;;;3.55;1.65;;;;;;;31.67;60.89;99052.69;4467977;32;20615;-85
2021/05/11 15:13:26;;;;;;;4.30;1.48;;;;;;;31.77;60.90;99048.84;4465627;32;24372;-85
2021/05/11 15:15:53;;;;;;;4.47;1.60;;;;;;;31.79;60.91;99042.22;4467724;32;20128;-86
2021/05/11 15:18:18;;;;;;;3.35;2.05;;;;;;;31.74;60.90;99034.75;4466319;32;20081;-85
2021/05/11 15:20:44;;;;;;;3.67;1.50;;;;;;;31.72;60.90;99039.50;4465751;32;20519;-85
2021/05/11 15:23:09;;;;;;;3.67;1.73;;;;;;;31.80;60.91;99033.09;4453378;32;20451;-86
2021/05/11 15:25:34;;;;;;;4.35;1.75;;;;;;;31.74;60.90;99024.00;4466284;32;20115;-85
2021/05/11 15:28:00;;;;;;;3.55;2.00;;;;;;;31.72;60.90;99031.44;4465480;32;28587;-86
2021/05/11 15:30:26;;;;;;;4.43;1.73;;;;;;;31.68;60.90;99027.44;4440468;32;20159;-86
2021/05/11 15:32:56;;;;;;;4.47;1.90;;;;;;;31.75;60.91;99019.44;4453186;32;20160;-85
2021/05/11 15:35:23;;;;;;;4.53;1.67;;;;;;;31.54;60.88;99020.38;4466412;32;20089;-86
2021/05/11 15:37:53;;;;;;;3.10;1.80;;;;;;;31.46;60.88;99023.22;4453199;32;20089;-84
2021/05/11 15:40:18;;;;;;;;;;;;;;;31.35;60.88;99023.81;4453881;32;20515;-85
2021/05/11 15:42:44;;;;;;;3.37;2.20;;;;;;;31.38;60.89;99018.84;4467470;32;19981;-86
2021/05/11 15:45:09;;;;;;;3.50;1.87;;;;;;;31.45;60.88;99013.50;4465446;32;25481;-86
2021/05/11 15:47:37;;;;;;;3.47;1.60;;;;;;;31.38;60.88;99009.94;4467393;32;20073;-85
2021/05/11 15:50:06;;;;;;;3.08;1.62;;;;;;;31.35;60.88;99007.66;4466107;32;20490;-86
2021/05/11 15:52:31;;;;;;;4.95;1.98;;;;;;;31.30;60.88;99010.13;4465958;32;20100;-86
2021/05/11 15:54:57;;;;;;;3.33;1.85;;;;;;;31.21;60.87;99005.94;4451720;32;36045;-85
2021/05/11 15:57:23;;;;;;;4.12;1.58;;;;;;;31.22;60.88;99003.06;4467182;32;20099;-86
2021/05/11 15:59:48;;;;;;;4.43;1.90;;;;;;;31.25;60.88;99005.38;4465743;32;20189;-87